sensor_id;sensor_type;location;lat;lon;timestamp;temperature;humidity
18392;DHT22;9322;50.932;5.318;2022-12-08T00:01:19;5.10;99.90
18392;DHT22;9322;50.932;5.318;2022-12-08T00:03:46;5.00;99.90
18392;DHT22;9322;50.932;5.318;2022-12-08T00:09:46;5.10;99.90
18392;DHT22;9322;50.932;5.318;2022-12-08T00:12:08;5.10;99.90
18392;DHT22;9322;50.932;5.318;2022-12-08T00:17:04;5.10;99.90
18392;DHT22;9322;50.932;5.318;2022-12-08T00:19:30;5.20;99.90
18392;DHT22;9322;50.932;5.318;2022-12-08T00:21:56;5.10;99.90
18392;DHT22;9322;50.932;5.318;2022-12-08T00:24:23;5.10;99.90
18392;DHT22;9322;50.932;5.318;2022-12-08T00:26:49;5.20;99.90
18392;DHT22;9322;50.932;5.318;2022-12-08T00:29:15;5.20;99.90
18392;DHT22;9322;50.932;5.318;2022-12-08T00:31:41;5.10;99.90
18392;DHT22;9322;50.932;5.318;2022-12-08T00:34:07;5.20;99.90
18392;DHT22;9322;50.932;5.318;2022-12-08T00:36:32;5.20;99.90
18392;DHT22;9322;50.932;5.318;2022-12-08T00:38:59;5.20;99.90
18392;DHT22;9322;50.932;5.318;2022-12-08T00:41:26;5.20;99.90
18392;DHT22;9322;50.932;5.318;2022-12-08T00:44:12;5.10;99.90
18392;DHT22;9322;50.932;5.318;2022-12-08T00:46:39;5.10;99.90
18392;DHT22;9322;50.932;5.318;2022-12-08T00:49:05;5.10;99.90
18392;DHT22;9322;50.932;5.318;2022-12-08T00:51:31;5.10;99.90
18392;DHT22;9322;50.932;5.318;2022-12-08T00:53:57;5.10;99.90
18392;DHT22;9322;50.932;5.318;2022-12-08T00:56:23;5.10;99.90
18392;DHT22;9322;50.932;5.318;2022-12-08T00:58:49;5.20;99.90
18392;DHT22;9322;50.932;5.318;2022-12-08T01:01:15;5.20;99.90
18392;DHT22;9322;50.932;5.318;2022-12-08T01:03:42;5.20;99.90
18392;DHT22;9322;50.932;5.318;2022-12-08T01:06:08;5.20;99.90
18392;DHT22;9322;50.932;5.318;2022-12-08T01:08:38;5.30;99.90
18392;DHT22;9322;50.932;5.318;2022-12-08T01:11:10;5.20;99.90
18392;DHT22;9322;50.932;5.318;2022-12-08T01:13:36;5.30;99.90
18392;DHT22;9322;50.932;5.318;2022-12-08T01:16:02;5.20;99.90
18392;DHT22;9322;50.932;5.318;2022-12-08T01:18:28;5.30;99.90
18392;DHT22;9322;50.932;5.318;2022-12-08T01:20:53;5.30;99.90
18392;DHT22;9322;50.932;5.318;2022-12-08T01:23:19;5.20;99.90
18392;DHT22;9322;50.932;5.318;2022-12-08T01:25:45;5.30;99.90
18392;DHT22;9322;50.932;5.318;2022-12-08T01:28:10;5.20;99.90
18392;DHT22;9322;50.932;5.318;2022-12-08T01:30:39;5.20;99.90
18392;DHT22;9322;50.932;5.318;2022-12-08T01:33:05;5.20;99.90
18392;DHT22;9322;50.932;5.318;2022-12-08T01:35:32;5.10;99.90
18392;DHT22;9322;50.932;5.318;2022-12-08T01:37:58;5.30;99.90
18392;DHT22;9322;50.932;5.318;2022-12-08T01:40:23;5.20;99.90
18392;DHT22;9322;50.932;5.318;2022-12-08T01:42:49;5.20;99.90
18392;DHT22;9322;50.932;5.318;2022-12-08T01:45:26;5.10;99.90
18392;DHT22;9322;50.932;5.318;2022-12-08T01:48:03;5.30;99.90
18392;DHT22;9322;50.932;5.318;2022-12-08T01:50:30;5.10;99.90
18392;DHT22;9322;50.932;5.318;2022-12-08T01:53:05;5.20;99.90
18392;DHT22;9322;50.932;5.318;2022-12-08T01:55:57;5.20;99.90
18392;DHT22;9322;50.932;5.318;2022-12-08T01:58:39;5.20;99.90
18392;DHT22;9322;50.932;5.318;2022-12-08T02:01:06;5.20;99.90
18392;DHT22;9322;50.932;5.318;2022-12-08T02:03:49;5.10;99.90
18392;DHT22;9322;50.932;5.318;2022-12-08T02:06:17;5.20;99.90
18392;DHT22;9322;50.932;5.318;2022-12-08T02:08:43;5.10;99.90
18392;DHT22;9322;50.932;5.318;2022-12-08T02:11:10;5.10;99.90
18392;DHT22;9322;50.932;5.318;2022-12-08T02:13:37;5.10;99.90
18392;DHT22;9322;50.932;5.318;2022-12-08T02:24:05;5.10;99.90
18392;DHT22;9322;50.932;5.318;2022-12-08T02:26:49;5.20;99.90
18392;DHT22;9322;50.932;5.318;2022-12-08T02:34:58;4.90;99.90
18392;DHT22;9322;50.932;5.318;2022-12-08T02:37:40;4.90;99.90
18392;DHT22;9322;50.932;5.318;2022-12-08T02:46:05;5.00;99.90
18392;DHT22;9322;50.932;5.318;2022-12-08T02:48:33;5.10;99.90
18392;DHT22;9322;50.932;5.318;2022-12-08T02:50:58;5.00;99.90
18392;DHT22;9322;50.932;5.318;2022-12-08T02:53:27;4.90;99.90
18392;DHT22;9322;50.932;5.318;2022-12-08T03:05:12;4.80;99.90
18392;DHT22;9322;50.932;5.318;2022-12-08T03:07:54;4.50;99.90
18392;DHT22;9322;50.932;5.318;2022-12-08T03:10:36;4.60;99.90
18392;DHT22;9322;50.932;5.318;2022-12-08T03:13:27;4.70;99.90
18392;DHT22;9322;50.932;5.318;2022-12-08T03:15:54;4.70;99.90
18392;DHT22;9322;50.932;5.318;2022-12-08T03:18:24;4.80;99.90
18392;DHT22;9322;50.932;5.318;2022-12-08T03:20:52;4.70;99.90
18392;DHT22;9322;50.932;5.318;2022-12-08T03:23:19;4.80;99.90
18392;DHT22;9322;50.932;5.318;2022-12-08T03:26:07;4.80;99.90
18392;DHT22;9322;50.932;5.318;2022-12-08T03:28:33;4.70;99.90
18392;DHT22;9322;50.932;5.318;2022-12-08T03:31:01;4.80;99.90
18392;DHT22;9322;50.932;5.318;2022-12-08T03:33:33;4.70;99.90
18392;DHT22;9322;50.932;5.318;2022-12-08T03:36:01;4.90;99.90
18392;DHT22;9322;50.932;5.318;2022-12-08T03:38:40;4.90;99.90
18392;DHT22;9322;50.932;5.318;2022-12-08T03:41:06;4.80;99.90
18392;DHT22;9322;50.932;5.318;2022-12-08T03:43:51;4.90;99.90
18392;DHT22;9322;50.932;5.318;2022-12-08T03:46:19;4.70;99.90
18392;DHT22;9322;50.932;5.318;2022-12-08T03:48:44;4.80;99.90
18392;DHT22;9322;50.932;5.318;2022-12-08T03:51:11;4.70;99.90
18392;DHT22;9322;50.932;5.318;2022-12-08T03:53:37;4.70;99.90
18392;DHT22;9322;50.932;5.318;2022-12-08T03:56:35;4.80;99.90
18392;DHT22;9322;50.932;5.318;2022-12-08T03:58:59;4.80;99.90
18392;DHT22;9322;50.932;5.318;2022-12-08T04:01:25;4.90;99.90
18392;DHT22;9322;50.932;5.318;2022-12-08T04:03:51;4.70;99.90
18392;DHT22;9322;50.932;5.318;2022-12-08T04:06:17;4.80;99.90
18392;DHT22;9322;50.932;5.318;2022-12-08T04:08:44;4.80;99.90
18392;DHT22;9322;50.932;5.318;2022-12-08T04:11:09;4.90;99.90
18392;DHT22;9322;50.932;5.318;2022-12-08T04:13:37;4.80;99.90
18392;DHT22;9322;50.932;5.318;2022-12-08T04:16:03;4.60;99.90
18392;DHT22;9322;50.932;5.318;2022-12-08T04:18:30;4.60;99.90
18392;DHT22;9322;50.932;5.318;2022-12-08T04:20:55;4.60;99.90
18392;DHT22;9322;50.932;5.318;2022-12-08T04:23:21;4.70;99.90
18392;DHT22;9322;50.932;5.318;2022-12-08T04:25:49;4.70;99.90
18392;DHT22;9322;50.932;5.318;2022-12-08T04:28:15;4.60;99.90
18392;DHT22;9322;50.932;5.318;2022-12-08T04:30:41;4.60;99.90
18392;DHT22;9322;50.932;5.318;2022-12-08T04:33:06;4.60;99.90
18392;DHT22;9322;50.932;5.318;2022-12-08T04:35:32;4.60;99.90
18392;DHT22;9322;50.932;5.318;2022-12-08T04:37:57;4.60;99.90
18392;DHT22;9322;50.932;5.318;2022-12-08T04:40:23;4.50;99.90
18392;DHT22;9322;50.932;5.318;2022-12-08T04:42:49;4.40;99.90
18392;DHT22;9322;50.932;5.318;2022-12-08T04:45:14;4.30;99.90
18392;DHT22;9322;50.932;5.318;2022-12-08T04:47:40;4.60;99.90
18392;DHT22;9322;50.932;5.318;2022-12-08T04:50:06;4.40;99.90
18392;DHT22;9322;50.932;5.318;2022-12-08T04:52:32;4.30;99.90
18392;DHT22;9322;50.932;5.318;2022-12-08T04:54:58;4.20;99.90
18392;DHT22;9322;50.932;5.318;2022-12-08T04:57:24;4.20;99.90
18392;DHT22;9322;50.932;5.318;2022-12-08T04:59:49;4.10;99.90
18392;DHT22;9322;50.932;5.318;2022-12-08T05:02:15;4.30;99.90
18392;DHT22;9322;50.932;5.318;2022-12-08T05:04:41;4.40;99.90
18392;DHT22;9322;50.932;5.318;2022-12-08T05:07:06;4.30;99.90
18392;DHT22;9322;50.932;5.318;2022-12-08T05:09:32;4.40;99.90
18392;DHT22;9322;50.932;5.318;2022-12-08T05:11:57;4.30;99.90
18392;DHT22;9322;50.932;5.318;2022-12-08T05:14:23;4.40;99.90
18392;DHT22;9322;50.932;5.318;2022-12-08T05:16:49;4.20;99.90
18392;DHT22;9322;50.932;5.318;2022-12-08T05:19:15;4.30;99.90
18392;DHT22;9322;50.932;5.318;2022-12-08T05:21:41;4.20;99.90
18392;DHT22;9322;50.932;5.318;2022-12-08T05:24:07;4.10;99.90
18392;DHT22;9322;50.932;5.318;2022-12-08T05:26:32;4.10;99.90
18392;DHT22;9322;50.932;5.318;2022-12-08T05:28:58;4.10;99.90
18392;DHT22;9322;50.932;5.318;2022-12-08T05:31:24;4.20;99.90
18392;DHT22;9322;50.932;5.318;2022-12-08T05:33:50;4.00;99.90
18392;DHT22;9322;50.932;5.318;2022-12-08T05:36:16;4.00;99.90
18392;DHT22;9322;50.932;5.318;2022-12-08T05:38:43;3.90;99.90
18392;DHT22;9322;50.932;5.318;2022-12-08T05:41:13;4.10;99.90
18392;DHT22;9322;50.932;5.318;2022-12-08T05:43:39;4.00;99.90
18392;DHT22;9322;50.932;5.318;2022-12-08T05:46:04;4.10;99.90
18392;DHT22;9322;50.932;5.318;2022-12-08T05:48:31;4.10;99.90
18392;DHT22;9322;50.932;5.318;2022-12-08T05:50:57;4.20;99.90
18392;DHT22;9322;50.932;5.318;2022-12-08T05:53:22;4.10;99.90
18392;DHT22;9322;50.932;5.318;2022-12-08T05:55:48;4.30;99.90
18392;DHT22;9322;50.932;5.318;2022-12-08T05:58:17;4.10;99.90
18392;DHT22;9322;50.932;5.318;2022-12-08T06:00:44;4.10;99.90
18392;DHT22;9322;50.932;5.318;2022-12-08T06:03:14;4.10;99.90
18392;DHT22;9322;50.932;5.318;2022-12-08T06:05:41;4.20;99.90
18392;DHT22;9322;50.932;5.318;2022-12-08T06:08:07;4.30;99.90
18392;DHT22;9322;50.932;5.318;2022-12-08T06:10:33;4.30;99.90
18392;DHT22;9322;50.932;5.318;2022-12-08T06:12:59;4.30;99.90
18392;DHT22;9322;50.932;5.318;2022-12-08T06:15:25;4.50;99.90
18392;DHT22;9322;50.932;5.318;2022-12-08T06:17:51;4.50;99.90
18392;DHT22;9322;50.932;5.318;2022-12-08T06:20:16;4.60;99.90
18392;DHT22;9322;50.932;5.318;2022-12-08T06:22:42;4.50;99.90
18392;DHT22;9322;50.932;5.318;2022-12-08T06:25:08;4.40;99.90
18392;DHT22;9322;50.932;5.318;2022-12-08T06:27:34;4.40;99.90
18392;DHT22;9322;50.932;5.318;2022-12-08T06:30:00;4.70;99.90
18392;DHT22;9322;50.932;5.318;2022-12-08T06:32:25;4.50;99.90
18392;DHT22;9322;50.932;5.318;2022-12-08T06:34:51;4.50;99.90
18392;DHT22;9322;50.932;5.318;2022-12-08T06:37:17;4.60;99.90
18392;DHT22;9322;50.932;5.318;2022-12-08T06:39:43;4.60;99.90
18392;DHT22;9322;50.932;5.318;2022-12-08T06:42:09;4.50;99.90
18392;DHT22;9322;50.932;5.318;2022-12-08T06:44:53;4.60;99.90
18392;DHT22;9322;50.932;5.318;2022-12-08T06:47:20;4.40;99.90
18392;DHT22;9322;50.932;5.318;2022-12-08T06:49:46;4.40;99.90
18392;DHT22;9322;50.932;5.318;2022-12-08T06:52:11;4.40;99.90
18392;DHT22;9322;50.932;5.318;2022-12-08T06:54:37;4.30;99.90
18392;DHT22;9322;50.932;5.318;2022-12-08T06:57:02;4.40;99.90
18392;DHT22;9322;50.932;5.318;2022-12-08T06:59:29;4.40;99.90
18392;DHT22;9322;50.932;5.318;2022-12-08T07:01:54;4.40;99.90
18392;DHT22;9322;50.932;5.318;2022-12-08T07:04:20;4.30;99.90
18392;DHT22;9322;50.932;5.318;2022-12-08T07:06:45;4.30;99.90
18392;DHT22;9322;50.932;5.318;2022-12-08T07:09:11;4.20;99.90
18392;DHT22;9322;50.932;5.318;2022-12-08T07:11:37;4.30;99.90
18392;DHT22;9322;50.932;5.318;2022-12-08T07:14:03;4.20;99.90
18392;DHT22;9322;50.932;5.318;2022-12-08T07:16:29;4.20;99.90
18392;DHT22;9322;50.932;5.318;2022-12-08T07:18:55;4.20;99.90
18392;DHT22;9322;50.932;5.318;2022-12-08T07:21:20;4.20;99.90
18392;DHT22;9322;50.932;5.318;2022-12-08T07:23:47;4.30;99.90
18392;DHT22;9322;50.932;5.318;2022-12-08T07:26:14;4.10;99.90
18392;DHT22;9322;50.932;5.318;2022-12-08T07:28:40;4.10;99.90
18392;DHT22;9322;50.932;5.318;2022-12-08T07:31:07;4.00;99.90
18392;DHT22;9322;50.932;5.318;2022-12-08T07:33:39;4.00;99.90
18392;DHT22;9322;50.932;5.318;2022-12-08T07:36:05;4.10;99.90
18392;DHT22;9322;50.932;5.318;2022-12-08T07:38:32;4.10;99.90
18392;DHT22;9322;50.932;5.318;2022-12-08T07:40:57;4.00;99.90
18392;DHT22;9322;50.932;5.318;2022-12-08T07:43:23;4.00;99.90
18392;DHT22;9322;50.932;5.318;2022-12-08T07:45:49;4.30;99.90
18392;DHT22;9322;50.932;5.318;2022-12-08T07:48:15;4.00;99.90
18392;DHT22;9322;50.932;5.318;2022-12-08T07:50:41;4.10;99.90
18392;DHT22;9322;50.932;5.318;2022-12-08T07:53:08;4.30;99.90
18392;DHT22;9322;50.932;5.318;2022-12-08T07:55:37;4.10;99.90
18392;DHT22;9322;50.932;5.318;2022-12-08T07:58:03;4.20;99.90
18392;DHT22;9322;50.932;5.318;2022-12-08T08:00:28;4.10;99.90
18392;DHT22;9322;50.932;5.318;2022-12-08T08:02:54;4.20;99.90
18392;DHT22;9322;50.932;5.318;2022-12-08T08:05:21;4.10;99.90
18392;DHT22;9322;50.932;5.318;2022-12-08T08:07:46;4.30;99.90
18392;DHT22;9322;50.932;5.318;2022-12-08T08:10:12;4.40;99.90
18392;DHT22;9322;50.932;5.318;2022-12-08T08:12:38;4.30;99.90
18392;DHT22;9322;50.932;5.318;2022-12-08T08:15:06;4.30;99.90
18392;DHT22;9322;50.932;5.318;2022-12-08T08:17:33;4.30;99.90
18392;DHT22;9322;50.932;5.318;2022-12-08T08:19:59;4.30;99.90
18392;DHT22;9322;50.932;5.318;2022-12-08T08:22:26;4.50;99.90
18392;DHT22;9322;50.932;5.318;2022-12-08T08:24:52;4.40;99.90
18392;DHT22;9322;50.932;5.318;2022-12-08T08:27:18;4.40;99.90
18392;DHT22;9322;50.932;5.318;2022-12-08T08:29:44;4.30;99.90
18392;DHT22;9322;50.932;5.318;2022-12-08T08:32:09;4.30;99.90
18392;DHT22;9322;50.932;5.318;2022-12-08T08:34:35;4.70;99.90
18392;DHT22;9322;50.932;5.318;2022-12-08T08:37:01;4.50;99.90
18392;DHT22;9322;50.932;5.318;2022-12-08T08:39:26;4.50;99.90
18392;DHT22;9322;50.932;5.318;2022-12-08T08:41:54;4.50;99.90
18392;DHT22;9322;50.932;5.318;2022-12-08T08:44:20;4.50;99.90
18392;DHT22;9322;50.932;5.318;2022-12-08T08:46:45;4.50;99.90
18392;DHT22;9322;50.932;5.318;2022-12-08T08:49:11;4.60;99.90
18392;DHT22;9322;50.932;5.318;2022-12-08T08:51:36;4.50;99.90
18392;DHT22;9322;50.932;5.318;2022-12-08T08:54:02;4.60;99.90
18392;DHT22;9322;50.932;5.318;2022-12-08T08:56:28;4.70;99.90
18392;DHT22;9322;50.932;5.318;2022-12-08T08:58:54;4.80;99.90
18392;DHT22;9322;50.932;5.318;2022-12-08T09:01:26;4.70;99.90
18392;DHT22;9322;50.932;5.318;2022-12-08T09:03:51;4.70;99.90
18392;DHT22;9322;50.932;5.318;2022-12-08T09:06:17;4.80;99.90
18392;DHT22;9322;50.932;5.318;2022-12-08T09:08:44;4.70;99.90
18392;DHT22;9322;50.932;5.318;2022-12-08T09:11:10;4.70;99.90
18392;DHT22;9322;50.932;5.318;2022-12-08T09:13:36;4.70;99.90
18392;DHT22;9322;50.932;5.318;2022-12-08T09:16:04;5.10;99.90
18392;DHT22;9322;50.932;5.318;2022-12-08T09:18:31;5.00;99.90
18392;DHT22;9322;50.932;5.318;2022-12-08T09:21:06;5.60;99.90
18392;DHT22;9322;50.932;5.318;2022-12-08T09:23:33;5.20;99.90
18392;DHT22;9322;50.932;5.318;2022-12-08T09:25:59;5.50;99.90
18392;DHT22;9322;50.932;5.318;2022-12-08T09:28:25;5.50;99.90
18392;DHT22;9322;50.932;5.318;2022-12-08T09:30:51;5.60;99.90
18392;DHT22;9322;50.932;5.318;2022-12-08T09:33:16;5.60;99.90
18392;DHT22;9322;50.932;5.318;2022-12-08T09:35:42;5.70;99.90
18392;DHT22;9322;50.932;5.318;2022-12-08T09:38:08;5.90;99.90
18392;DHT22;9322;50.932;5.318;2022-12-08T09:40:48;5.50;99.90
18392;DHT22;9322;50.932;5.318;2022-12-08T09:46:04;5.70;99.90
18392;DHT22;9322;50.932;5.318;2022-12-08T09:48:37;5.90;99.90
18392;DHT22;9322;50.932;5.318;2022-12-08T09:51:04;5.60;99.90
18392;DHT22;9322;50.932;5.318;2022-12-08T09:53:54;5.50;99.90
18392;DHT22;9322;50.932;5.318;2022-12-08T09:56:22;5.50;99.90
18392;DHT22;9322;50.932;5.318;2022-12-08T09:58:52;5.60;99.90
18392;DHT22;9322;50.932;5.318;2022-12-08T10:01:21;5.60;99.90
18392;DHT22;9322;50.932;5.318;2022-12-08T10:03:48;5.40;99.90
18392;DHT22;9322;50.932;5.318;2022-12-08T10:17:38;5.90;99.90
18392;DHT22;9322;50.932;5.318;2022-12-08T10:20:26;6.00;99.90
18392;DHT22;9322;50.932;5.318;2022-12-08T10:25:44;5.90;99.90
18392;DHT22;9322;50.932;5.318;2022-12-08T10:28:11;5.70;99.90
18392;DHT22;9322;50.932;5.318;2022-12-08T10:30:36;5.50;99.90
18392;DHT22;9322;50.932;5.318;2022-12-08T10:33:02;5.40;99.90
18392;DHT22;9322;50.932;5.318;2022-12-08T10:38:30;5.50;99.90
18392;DHT22;9322;50.932;5.318;2022-12-08T10:43:28;5.50;99.90
18392;DHT22;9322;50.932;5.318;2022-12-08T10:45:53;5.60;99.90
18392;DHT22;9322;50.932;5.318;2022-12-08T10:48:26;5.40;99.90
18392;DHT22;9322;50.932;5.318;2022-12-08T10:50:57;5.40;99.90
18392;DHT22;9322;50.932;5.318;2022-12-08T10:53:28;5.20;99.90
18392;DHT22;9322;50.932;5.318;2022-12-08T11:01:17;5.30;99.90
18392;DHT22;9322;50.932;5.318;2022-12-08T11:03:51;5.30;99.90
18392;DHT22;9322;50.932;5.318;2022-12-08T11:06:22;5.30;99.90
18392;DHT22;9322;50.932;5.318;2022-12-08T11:08:55;5.40;99.90
18392;DHT22;9322;50.932;5.318;2022-12-08T11:11:43;5.40;99.90
18392;DHT22;9322;50.932;5.318;2022-12-08T11:14:15;5.50;99.90
18392;DHT22;9322;50.932;5.318;2022-12-08T11:16:43;5.60;99.90
18392;DHT22;9322;50.932;5.318;2022-12-08T11:19:14;5.50;99.90
18392;DHT22;9322;50.932;5.318;2022-12-08T11:21:40;5.50;99.90
18392;DHT22;9322;50.932;5.318;2022-12-08T11:24:27;5.70;99.90
18392;DHT22;9322;50.932;5.318;2022-12-08T11:26:59;5.40;99.90
18392;DHT22;9322;50.932;5.318;2022-12-08T11:29:30;5.40;99.90
18392;DHT22;9322;50.932;5.318;2022-12-08T11:32:20;5.50;99.90
18392;DHT22;9322;50.932;5.318;2022-12-08T11:34:47;5.70;99.90
18392;DHT22;9322;50.932;5.318;2022-12-08T11:37:34;5.80;99.90
18392;DHT22;9322;50.932;5.318;2022-12-08T11:40:16;6.00;99.90
18392;DHT22;9322;50.932;5.318;2022-12-08T11:43:11;6.00;99.90
18392;DHT22;9322;50.932;5.318;2022-12-08T11:45:39;6.00;99.90
18392;DHT22;9322;50.932;5.318;2022-12-08T11:48:34;6.20;99.90
18392;DHT22;9322;50.932;5.318;2022-12-08T11:51:10;5.90;99.90
18392;DHT22;9322;50.932;5.318;2022-12-08T11:56:18;6.20;99.90
18392;DHT22;9322;50.932;5.318;2022-12-08T11:58:47;6.40;99.90
18392;DHT22;9322;50.932;5.318;2022-12-08T12:01:23;6.70;99.90
18392;DHT22;9322;50.932;5.318;2022-12-08T12:06:52;7.30;98.60
18392;DHT22;9322;50.932;5.318;2022-12-08T12:20:32;8.80;79.40
18392;DHT22;9322;50.932;5.318;2022-12-08T12:23:12;8.60;81.40
18392;DHT22;9322;50.932;5.318;2022-12-08T12:25:59;8.50;81.00
18392;DHT22;9322;50.932;5.318;2022-12-08T12:28:28;7.80;86.40
18392;DHT22;9322;50.932;5.318;2022-12-08T12:31:02;7.80;89.40
18392;DHT22;9322;50.932;5.318;2022-12-08T12:33:30;7.50;88.40
18392;DHT22;9322;50.932;5.318;2022-12-08T12:36:00;7.40;88.70
18392;DHT22;9322;50.932;5.318;2022-12-08T12:38:33;7.40;89.30
18392;DHT22;9322;50.932;5.318;2022-12-08T12:41:27;7.20;91.90
18392;DHT22;9322;50.932;5.318;2022-12-08T12:44:11;7.30;90.90
18392;DHT22;9322;50.932;5.318;2022-12-08T12:46:52;6.90;95.20
18392;DHT22;9322;50.932;5.318;2022-12-08T12:59:44;6.90;98.90
18392;DHT22;9322;50.932;5.318;2022-12-08T13:02:58;6.60;98.10
18392;DHT22;9322;50.932;5.318;2022-12-08T13:07:52;7.00;99.20
18392;DHT22;9322;50.932;5.318;2022-12-08T13:10:34;6.60;99.70
18392;DHT22;9322;50.932;5.318;2022-12-08T13:31:35;6.50;99.00
18392;DHT22;9322;50.932;5.318;2022-12-08T13:34:05;6.50;97.10
18392;DHT22;9322;50.932;5.318;2022-12-08T13:36:34;6.50;96.90
18392;DHT22;9322;50.932;5.318;2022-12-08T13:39:03;6.50;95.00
18392;DHT22;9322;50.932;5.318;2022-12-08T13:41:40;6.30;98.70
18392;DHT22;9322;50.932;5.318;2022-12-08T13:44:15;6.40;99.90
18392;DHT22;9322;50.932;5.318;2022-12-08T13:46:50;6.30;97.70
18392;DHT22;9322;50.932;5.318;2022-12-08T13:49:20;6.40;98.60
18392;DHT22;9322;50.932;5.318;2022-12-08T13:51:47;6.30;99.60
18392;DHT22;9322;50.932;5.318;2022-12-08T13:54:23;6.20;99.90
18392;DHT22;9322;50.932;5.318;2022-12-08T13:56:50;6.20;99.90
18392;DHT22;9322;50.932;5.318;2022-12-08T14:01:48;6.20;99.90
18392;DHT22;9322;50.932;5.318;2022-12-08T14:04:17;6.30;99.90
18392;DHT22;9322;50.932;5.318;2022-12-08T14:06:47;6.30;99.90
18392;DHT22;9322;50.932;5.318;2022-12-08T14:09:19;6.40;99.90
18392;DHT22;9322;50.932;5.318;2022-12-08T14:12:21;6.10;99.90
18392;DHT22;9322;50.932;5.318;2022-12-08T14:14:47;6.00;99.90
18392;DHT22;9322;50.932;5.318;2022-12-08T14:17:16;6.10;99.90
18392;DHT22;9322;50.932;5.318;2022-12-08T14:19:44;6.10;99.90
18392;DHT22;9322;50.932;5.318;2022-12-08T14:22:17;5.80;99.90
18392;DHT22;9322;50.932;5.318;2022-12-08T14:24:48;5.90;99.90
18392;DHT22;9322;50.932;5.318;2022-12-08T14:27:16;5.80;99.90
18392;DHT22;9322;50.932;5.318;2022-12-08T14:29:57;6.00;99.90
18392;DHT22;9322;50.932;5.318;2022-12-08T14:32:28;6.10;99.90
18392;DHT22;9322;50.932;5.318;2022-12-08T14:37:29;5.90;99.90
18392;DHT22;9322;50.932;5.318;2022-12-08T14:48:44;5.90;99.90
18392;DHT22;9322;50.932;5.318;2022-12-08T14:56:21;5.50;99.90
18392;DHT22;9322;50.932;5.318;2022-12-08T14:58:49;5.50;99.90
18392;DHT22;9322;50.932;5.318;2022-12-08T15:01:25;5.50;99.90
18392;DHT22;9322;50.932;5.318;2022-12-08T15:03:51;5.40;99.90
18392;DHT22;9322;50.932;5.318;2022-12-08T15:06:20;5.40;99.90
18392;DHT22;9322;50.932;5.318;2022-12-08T15:08:53;5.60;99.90
18392;DHT22;9322;50.932;5.318;2022-12-08T15:13:50;5.40;99.90
18392;DHT22;9322;50.932;5.318;2022-12-08T15:16:29;5.40;99.90
18392;DHT22;9322;50.932;5.318;2022-12-08T15:21:40;5.40;99.90
18392;DHT22;9322;50.932;5.318;2022-12-08T15:24:10;5.50;99.90
18392;DHT22;9322;50.932;5.318;2022-12-08T15:26:44;5.30;99.90
18392;DHT22;9322;50.932;5.318;2022-12-08T15:31:49;5.40;99.90
18392;DHT22;9322;50.932;5.318;2022-12-08T15:34:15;5.40;99.90
18392;DHT22;9322;50.932;5.318;2022-12-08T15:36:41;5.50;99.90
18392;DHT22;9322;50.932;5.318;2022-12-08T15:39:24;5.40;99.90
18392;DHT22;9322;50.932;5.318;2022-12-08T15:41:52;5.40;99.90
18392;DHT22;9322;50.932;5.318;2022-12-08T15:44:18;5.20;99.90
18392;DHT22;9322;50.932;5.318;2022-12-08T15:46:44;5.20;99.90
18392;DHT22;9322;50.932;5.318;2022-12-08T15:49:18;4.90;99.90
18392;DHT22;9322;50.932;5.318;2022-12-08T15:51:44;5.00;99.90
18392;DHT22;9322;50.932;5.318;2022-12-08T15:54:10;4.90;99.90
18392;DHT22;9322;50.932;5.318;2022-12-08T15:56:44;4.80;99.90
18392;DHT22;9322;50.932;5.318;2022-12-08T15:59:22;4.70;99.90
18392;DHT22;9322;50.932;5.318;2022-12-08T16:01:49;4.80;99.90
18392;DHT22;9322;50.932;5.318;2022-12-08T16:04:17;4.70;99.90
18392;DHT22;9322;50.932;5.318;2022-12-08T16:06:49;4.70;99.90
18392;DHT22;9322;50.932;5.318;2022-12-08T16:11:58;4.40;99.90
18392;DHT22;9322;50.932;5.318;2022-12-08T16:14:55;4.50;99.90
18392;DHT22;9322;50.932;5.318;2022-12-08T16:17:21;4.40;99.90
18392;DHT22;9322;50.932;5.318;2022-12-08T16:19:47;4.50;99.90
18392;DHT22;9322;50.932;5.318;2022-12-08T16:22:18;4.40;99.90
18392;DHT22;9322;50.932;5.318;2022-12-08T16:24:44;4.30;99.90
18392;DHT22;9322;50.932;5.318;2022-12-08T16:29:48;4.20;99.90
18392;DHT22;9322;50.932;5.318;2022-12-08T16:32:14;4.20;99.90
18392;DHT22;9322;50.932;5.318;2022-12-08T16:34:40;4.30;99.90
18392;DHT22;9322;50.932;5.318;2022-12-08T16:37:20;4.20;99.90
18392;DHT22;9322;50.932;5.318;2022-12-08T16:39:48;4.20;99.90
18392;DHT22;9322;50.932;5.318;2022-12-08T16:42:22;4.30;99.90
18392;DHT22;9322;50.932;5.318;2022-12-08T16:47:35;4.20;99.90
18392;DHT22;9322;50.932;5.318;2022-12-08T16:50:31;4.20;99.90
18392;DHT22;9322;50.932;5.318;2022-12-08T16:53:00;4.20;99.90
18392;DHT22;9322;50.932;5.318;2022-12-08T16:55:26;4.20;99.90
18392;DHT22;9322;50.932;5.318;2022-12-08T16:57:52;4.30;99.90
18392;DHT22;9322;50.932;5.318;2022-12-08T17:00:20;4.20;99.90
18392;DHT22;9322;50.932;5.318;2022-12-08T17:02:46;4.10;99.90
18392;DHT22;9322;50.932;5.318;2022-12-08T17:05:13;4.30;99.90
18392;DHT22;9322;50.932;5.318;2022-12-08T17:07:41;4.20;99.90
18392;DHT22;9322;50.932;5.318;2022-12-08T17:10:09;4.20;99.90
18392;DHT22;9322;50.932;5.318;2022-12-08T17:12:35;4.10;99.90
18392;DHT22;9322;50.932;5.318;2022-12-08T17:15:03;4.10;99.90
18392;DHT22;9322;50.932;5.318;2022-12-08T17:17:28;4.00;99.90
18392;DHT22;9322;50.932;5.318;2022-12-08T17:19:54;4.10;99.90
18392;DHT22;9322;50.932;5.318;2022-12-08T17:22:19;4.10;99.90
18392;DHT22;9322;50.932;5.318;2022-12-08T17:24:45;3.90;99.90
18392;DHT22;9322;50.932;5.318;2022-12-08T17:27:11;3.90;99.90
18392;DHT22;9322;50.932;5.318;2022-12-08T17:29:36;3.70;99.90
18392;DHT22;9322;50.932;5.318;2022-12-08T17:32:02;3.60;99.90
18392;DHT22;9322;50.932;5.318;2022-12-08T17:34:28;3.50;99.90
18392;DHT22;9322;50.932;5.318;2022-12-08T17:36:54;3.50;99.90
18392;DHT22;9322;50.932;5.318;2022-12-08T17:39:19;3.60;99.90
18392;DHT22;9322;50.932;5.318;2022-12-08T17:41:46;3.50;99.90
18392;DHT22;9322;50.932;5.318;2022-12-08T17:44:17;3.40;99.90
18392;DHT22;9322;50.932;5.318;2022-12-08T17:46:43;3.40;99.90
18392;DHT22;9322;50.932;5.318;2022-12-08T17:49:11;3.40;99.90
18392;DHT22;9322;50.932;5.318;2022-12-08T17:51:39;3.40;99.90
18392;DHT22;9322;50.932;5.318;2022-12-08T17:54:05;3.40;99.90
18392;DHT22;9322;50.932;5.318;2022-12-08T17:56:31;3.50;99.90
18392;DHT22;9322;50.932;5.318;2022-12-08T17:58:56;3.40;99.90
18392;DHT22;9322;50.932;5.318;2022-12-08T18:01:22;3.40;99.90
18392;DHT22;9322;50.932;5.318;2022-12-08T18:03:48;3.50;99.90
18392;DHT22;9322;50.932;5.318;2022-12-08T18:06:14;3.40;99.90
18392;DHT22;9322;50.932;5.318;2022-12-08T18:08:42;3.40;99.90
18392;DHT22;9322;50.932;5.318;2022-12-08T18:11:20;3.20;99.90
18392;DHT22;9322;50.932;5.318;2022-12-08T18:13:47;3.20;99.90
18392;DHT22;9322;50.932;5.318;2022-12-08T18:16:13;3.30;99.90
18392;DHT22;9322;50.932;5.318;2022-12-08T18:18:39;3.20;99.90
18392;DHT22;9322;50.932;5.318;2022-12-08T18:21:05;3.20;99.90
18392;DHT22;9322;50.932;5.318;2022-12-08T18:23:31;3.20;99.90
18392;DHT22;9322;50.932;5.318;2022-12-08T18:25:57;3.20;99.90
18392;DHT22;9322;50.932;5.318;2022-12-08T18:28:22;3.20;99.90
18392;DHT22;9322;50.932;5.318;2022-12-08T18:30:48;3.10;99.90
18392;DHT22;9322;50.932;5.318;2022-12-08T18:33:14;3.30;99.90
18392;DHT22;9322;50.932;5.318;2022-12-08T18:35:40;3.20;99.90
18392;DHT22;9322;50.932;5.318;2022-12-08T18:38:05;3.30;99.90
18392;DHT22;9322;50.932;5.318;2022-12-08T18:40:31;3.30;99.90